createdAt,value
2022-12-19T00:01:36.987Z,1.20
2022-12-19T00:04:08.144Z,1.20
2022-12-19T00:06:37.335Z,1.20
2022-12-19T00:09:05.281Z,1.20
2022-12-19T00:11:32.916Z,1.30
2022-12-19T00:14:02.461Z,1.20
2022-12-19T00:16:30.267Z,1.30
2022-12-19T00:19:01.536Z,1.30
2022-12-19T00:21:34.703Z,1.40
2022-12-19T00:24:03.275Z,1.40
2022-12-19T00:26:34.670Z,1.40
2022-12-19T00:29:13.898Z,1.40
2022-12-19T00:31:41.102Z,1.40
2022-12-19T00:39:08.139Z,1.40
2022-12-19T00:41:37.080Z,1.50
2022-12-19T00:44:10.252Z,1.50
2022-12-19T00:49:05.053Z,1.50
2022-12-19T00:51:34.670Z,1.50
2022-12-19T00:54:03.092Z,1.50
2022-12-19T00:56:37.762Z,1.60
2022-12-19T01:01:36.705Z,1.60
2022-12-19T01:04:27.740Z,1.60
2022-12-19T01:06:52.168Z,1.50
2022-12-19T01:12:09.694Z,2.10
2022-12-19T01:31:47.857Z,1.80
2022-12-19T01:44:08.421Z,1.70
2022-12-19T01:46:45.743Z,1.80
2022-12-19T01:49:31.979Z,1.80
2022-12-19T01:52:10.351Z,1.80
2022-12-19T01:57:14.163Z,1.80
2022-12-19T02:02:13.165Z,1.80
2022-12-19T02:04:41.739Z,1.90
2022-12-19T02:07:15.601Z,1.80
2022-12-19T02:09:45.666Z,1.90
2022-12-19T02:12:13.316Z,1.80
2022-12-19T02:14:41.123Z,1.90
2022-12-19T02:17:28.620Z,1.90
2022-12-19T02:20:15.433Z,1.70
2022-12-19T02:22:53.924Z,1.80
2022-12-19T02:25:42.875Z,1.80
2022-12-19T02:28:40.442Z,1.80
2022-12-19T02:31:17.710Z,2.20
2022-12-19T02:34:09.545Z,1.80
2022-12-19T02:37:18.667Z,1.80
2022-12-19T02:39:52.374Z,1.80
2022-12-19T02:42:31.991Z,2.10
2022-12-19T02:45:02.397Z,1.90
2022-12-19T02:47:32.353Z,1.90
2022-12-19T02:54:59.026Z,1.90
2022-12-19T02:57:33.578Z,1.90
2022-12-19T03:05:12.282Z,1.70
2022-12-19T03:07:57.191Z,2.00
2022-12-19T03:10:54.450Z,1.70
2022-12-19T03:13:34.332Z,2.00
2022-12-19T03:16:03.304Z,1.50
2022-12-19T03:18:32.169Z,1.60
2022-12-19T03:21:04.541Z,2.00
2022-12-19T03:26:06.533Z,2.10
2022-12-19T03:28:46.691Z,2.10
2022-12-19T03:31:16.851Z,2.00
2022-12-19T03:33:45.197Z,2.00
2022-12-19T03:36:18.063Z,2.00
2022-12-19T03:38:46.390Z,2.00
2022-12-19T03:41:15.758Z,1.90
2022-12-19T03:43:43.938Z,1.70
2022-12-19T03:46:20.172Z,2.00
2022-12-19T03:48:49.853Z,2.00
2022-12-19T03:51:54.888Z,2.00
2022-12-19T03:54:32.774Z,2.00
2022-12-19T03:57:26.746Z,1.90
2022-12-19T04:00:04.455Z,2.10
2022-12-19T04:02:42.577Z,2.10
2022-12-19T04:05:12.783Z,2.00
2022-12-19T04:07:41.302Z,2.00
2022-12-19T04:10:12.046Z,2.10
2022-12-19T04:12:45.606Z,2.10
2022-12-19T04:15:12.897Z,1.80
2022-12-19T04:17:44.754Z,2.00
2022-12-19T04:25:29.727Z,2.00
2022-12-19T04:30:36.476Z,2.00
2022-12-19T05:02:37.532Z,2.20
2022-12-19T05:19:47.368Z,2.20
2022-12-19T05:46:45.549Z,2.30
2022-12-19T05:59:01.026Z,2.30
2022-12-19T06:06:25.134Z,2.40
2022-12-19T06:08:56.087Z,2.30
2022-12-19T06:16:20.471Z,2.40
2022-12-19T06:18:47.480Z,2.40
2022-12-19T06:26:16.864Z,2.40
2022-12-19T06:28:46.363Z,2.30
2022-12-19T06:31:13.949Z,2.40
2022-12-19T06:36:12.183Z,2.30
2022-12-19T06:46:20.891Z,2.40
2022-12-19T06:48:48.095Z,2.30
2022-12-19T06:56:10.891Z,2.50
2022-12-19T07:03:41.729Z,2.60
2022-12-19T07:16:01.310Z,2.60
2022-12-19T07:18:30.373Z,2.70
2022-12-19T07:38:15.189Z,2.60
2022-12-19T07:45:38.306Z,2.80
2022-12-19T07:48:06.838Z,2.90
2022-12-19T07:50:34.431Z,2.70
2022-12-19T08:00:23.157Z,3.00
2022-12-19T08:02:49.974Z,3.10
2022-12-19T08:12:39.329Z,3.10
2022-12-19T08:15:07.172Z,3.30
2022-12-19T08:20:02.523Z,3.10
2022-12-19T08:22:30.348Z,3.40
2022-12-19T08:32:21.603Z,3.30
2022-12-19T08:34:49.917Z,3.60
2022-12-19T08:47:05.315Z,3.80
2022-12-19T09:12:10.213Z,4.20
2022-12-19T09:19:32.305Z,4.20
2022-12-19T09:26:53.730Z,4.30
2022-12-19T09:31:56.292Z,4.30
2022-12-19T09:34:27.421Z,4.40
2022-12-19T09:37:06.527Z,4.40
2022-12-19T09:39:34.338Z,4.50
2022-12-19T09:42:07.033Z,4.50
2022-12-19T09:47:14.103Z,4.40
2022-12-19T09:49:43.489Z,4.60
2022-12-19T09:52:33.212Z,4.70
2022-12-19T09:55:16.793Z,4.60
2022-12-19T09:58:16.201Z,4.70
2022-12-19T10:00:56.462Z,4.80
2022-12-19T10:03:43.558Z,4.80
2022-12-19T10:07:22.357Z,4.80
2022-12-19T10:10:39.966Z,4.90
2022-12-19T10:12:48.260Z,4.90
2022-12-19T10:15:47.886Z,5.00
2022-12-19T10:18:52.683Z,5.00
2022-12-19T10:22:08.106Z,5.10
2022-12-19T10:25:09.439Z,5.00
2022-12-19T10:27:58.726Z,5.20
2022-12-19T10:30:31.696Z,5.20
2022-12-19T10:35:43.705Z,5.30
2022-12-19T10:38:28.481Z,5.40
2022-12-19T10:41:10.302Z,5.40
2022-12-19T10:46:20.037Z,5.50
2022-12-19T10:48:50.478Z,5.50
2022-12-19T10:51:23.919Z,5.60
2022-12-19T10:53:57.157Z,5.60
2022-12-19T10:56:33.173Z,5.60
2022-12-19T11:01:38.919Z,5.60
2022-12-19T11:04:24.531Z,5.70
2022-12-19T11:07:03.904Z,5.70
2022-12-19T11:09:41.725Z,5.80
2022-12-19T11:16:38.387Z,5.70
2022-12-19T11:18:55.574Z,5.90
2022-12-19T11:26:14.588Z,5.90
2022-12-19T11:30:05.776Z,5.90
2022-12-19T11:30:36.479Z,5.90
2022-12-19T11:30:45.320Z,6.00
2022-12-19T11:32:42.098Z,6.00
2022-12-19T11:35:21.015Z,6.00
2022-12-19T11:40:36.466Z,6.10
2022-12-19T11:46:40.364Z,6.00
2022-12-19T11:49:16.185Z,6.00
2022-12-19T11:51:55.909Z,6.00
2022-12-19T11:54:30.305Z,6.00
2022-12-19T11:59:38.092Z,6.10
2022-12-19T12:02:07.815Z,6.10
2022-12-19T12:05:28.560Z,6.10
2022-12-19T12:09:52.650Z,6.10
2022-12-19T12:19:39.222Z,6.10
2022-12-19T12:24:15.841Z,6.00
2022-12-19T12:28:10.677Z,6.20
2022-12-19T12:31:31.737Z,6.20
2022-12-19T12:31:58.101Z,6.20
2022-12-19T12:35:46.568Z,6.10
2022-12-19T12:38:27.022Z,6.10
2022-12-19T12:41:49.471Z,6.10
2022-12-19T12:46:49.655Z,6.10
2022-12-19T12:49:37.358Z,6.10
2022-12-19T12:52:07.922Z,6.10
2022-12-19T12:54:39.075Z,6.00
2022-12-19T13:02:11.667Z,6.10
2022-12-19T13:04:58.897Z,6.10
2022-12-19T13:07:41.281Z,6.20
2022-12-19T13:10:23.304Z,6.10
2022-12-19T13:13:14.475Z,6.10
2022-12-19T13:15:45.751Z,6.00
2022-12-19T13:20:45.600Z,6.00
2022-12-19T13:23:41.515Z,6.00
2022-12-19T13:26:45.090Z,6.00
2022-12-19T13:29:30.413Z,6.00
2022-12-19T13:32:15.255Z,6.10
2022-12-19T13:34:58.225Z,6.10
2022-12-19T13:39:49.403Z,6.10
2022-12-19T13:40:33.126Z,6.10
2022-12-19T13:43:41.262Z,6.00
2022-12-19T13:46:26.851Z,6.10
2022-12-19T13:49:12.288Z,6.10
2022-12-19T13:51:52.189Z,6.10
2022-12-19T13:54:34.621Z,5.90
2022-12-19T13:59:39.606Z,6.10
2022-12-19T14:02:16.248Z,6.20
2022-12-19T14:04:44.457Z,6.20
2022-12-19T14:07:39.317Z,6.20
2022-12-19T14:11:37.895Z,6.20
2022-12-19T14:13:48.719Z,6.30
2022-12-19T14:16:39.738Z,6.20
2022-12-19T14:19:27.014Z,6.20
2022-12-19T14:24:52.692Z,6.20
2022-12-19T14:28:18.230Z,6.30
2022-12-19T14:30:28.055Z,6.30
2022-12-19T14:33:43.820Z,6.10
2022-12-19T14:36:10.478Z,6.20
2022-12-19T14:39:25.485Z,6.20
2022-12-19T14:52:08.478Z,6.10
2022-12-19T14:54:23.585Z,6.10
2022-12-19T14:56:12.964Z,6.10
2022-12-19T14:58:53.401Z,6.10
2022-12-19T15:01:29.598Z,6.10
2022-12-19T15:04:52.946Z,6.20
2022-12-19T15:07:07.808Z,6.50
2022-12-19T15:11:03.011Z,6.20
2022-12-19T15:14:47.271Z,6.20
2022-12-19T15:16:01.885Z,6.20
2022-12-19T15:18:41.094Z,6.10
2022-12-19T15:21:14.695Z,6.30
2022-12-19T15:26:17.112Z,6.20
2022-12-19T15:28:48.090Z,6.20
2022-12-19T15:31:38.458Z,6.00
2022-12-19T15:37:16.973Z,6.00
2022-12-19T15:39:44.945Z,5.90
2022-12-19T15:42:22.605Z,5.80
2022-12-19T15:44:51.697Z,5.80
2022-12-19T15:47:24.806Z,5.80
2022-12-19T15:49:51.456Z,5.90
2022-12-19T15:52:19.701Z,5.80
2022-12-19T15:57:38.327Z,5.80
2022-12-19T16:00:18.391Z,5.70
2022-12-19T16:12:58.177Z,5.60
2022-12-19T16:15:33.851Z,5.50
2022-12-19T16:18:02.992Z,5.60
2022-12-19T16:20:39.241Z,5.50
2022-12-19T16:23:06.635Z,5.70
2022-12-19T16:25:39.650Z,5.60
2022-12-19T16:28:14.503Z,5.50
2022-12-19T16:30:43.362Z,5.40
2022-12-19T16:33:30.008Z,5.40
2022-12-19T16:41:01.689Z,5.40
2022-12-19T16:43:33.626Z,5.40
2022-12-19T16:46:01.940Z,5.60
2022-12-19T16:48:29.802Z,5.40
2022-12-19T16:50:58.809Z,5.40
2022-12-19T16:55:55.497Z,5.40
2022-12-19T16:58:25.057Z,5.30
2022-12-19T17:00:54.770Z,5.50
2022-12-19T17:03:41.336Z,5.40
2022-12-19T17:06:16.353Z,5.20
2022-12-19T17:08:43.880Z,5.40
2022-12-19T17:11:20.687Z,5.40
2022-12-19T17:14:08.457Z,5.40
2022-12-19T17:21:29.833Z,5.40
2022-12-19T17:31:27.923Z,5.40
2022-12-19T17:33:57.610Z,5.50
2022-12-19T17:36:32.684Z,5.80
2022-12-19T17:46:24.755Z,5.60
2022-12-19T17:48:53.009Z,5.50
2022-12-19T17:51:21.623Z,5.60
2022-12-19T17:53:49.725Z,5.60
2022-12-19T17:56:18.628Z,5.60
2022-12-19T18:01:23.525Z,5.70
2022-12-19T18:03:52.226Z,5.80
2022-12-19T18:11:24.686Z,5.90
2022-12-19T18:13:52.388Z,5.90
2022-12-19T18:16:24.518Z,5.90
2022-12-19T18:21:22.198Z,5.90
2022-12-19T18:23:49.014Z,5.90
2022-12-19T18:28:43.221Z,5.80
2022-12-19T18:31:16.382Z,5.80
2022-12-19T18:33:46.544Z,6.10
2022-12-19T18:36:25.021Z,5.80
2022-12-19T18:38:52.766Z,5.80
2022-12-19T18:41:20.740Z,5.80
2022-12-19T18:46:17.183Z,5.60
2022-12-19T18:48:45.240Z,5.60
2022-12-19T18:51:17.368Z,5.70
2022-12-19T18:53:45.381Z,5.70
2022-12-19T18:56:12.398Z,5.50
2022-12-19T18:58:39.274Z,5.50
2022-12-19T19:01:11.590Z,5.60
2022-12-19T19:03:39.766Z,5.70
2022-12-19T19:06:17.936Z,5.70
2022-12-19T19:16:27.005Z,5.70
2022-12-19T19:18:56.028Z,5.70
2022-12-19T19:21:29.460Z,5.70
2022-12-19T19:24:03.734Z,5.70
2022-12-19T19:31:27.839Z,5.80
2022-12-19T19:34:03.023Z,5.80
2022-12-19T19:36:33.006Z,5.80
2022-12-19T19:43:58.592Z,5.90
2022-12-19T19:46:26.292Z,5.80
2022-12-19T20:01:11.039Z,6.00
2022-12-19T20:03:39.894Z,6.20
2022-12-19T20:06:07.259Z,6.30
2022-12-19T20:11:08.229Z,6.30
2022-12-19T20:13:35.277Z,6.30
2022-12-19T20:16:07.902Z,6.30
2022-12-19T20:18:35.780Z,6.50
2022-12-19T20:21:06.573Z,6.30
2022-12-19T20:23:36.566Z,6.30
2022-12-19T20:26:04.798Z,6.30
2022-12-19T20:28:32.140Z,6.20
2022-12-19T20:33:26.880Z,6.20
2022-12-19T20:35:58.386Z,6.20
2022-12-19T20:38:25.259Z,6.20
2022-12-19T20:40:55.603Z,6.30
2022-12-19T20:43:23.414Z,6.30
2022-12-19T21:05:54.997Z,6.50
2022-12-19T21:08:22.770Z,6.50
2022-12-19T21:10:49.452Z,6.40
2022-12-19T21:18:10.804Z,6.50
2022-12-19T21:20:38.055Z,6.60
2022-12-19T21:30:26.240Z,6.60
2022-12-19T21:32:52.930Z,6.30
2022-12-19T21:40:21.571Z,6.40
2022-12-19T21:50:12.593Z,6.40
2022-12-19T21:52:40.125Z,6.40
2022-12-19T21:55:08.366Z,6.40
2022-12-19T21:57:41.772Z,6.50
2022-12-19T22:00:10.797Z,6.40
2022-12-19T22:05:06.459Z,6.60
2022-12-19T22:07:33.264Z,6.40
2022-12-19T22:19:48.535Z,6.70
2022-12-19T22:32:04.599Z,6.80
2022-12-19T22:44:24.405Z,6.90
2022-12-19T22:46:51.882Z,6.90
2022-12-19T22:49:18.701Z,6.90
2022-12-19T22:51:45.493Z,7.00
2022-12-19T22:54:12.712Z,7.00
2022-12-19T22:59:08.449Z,6.90
2022-12-19T23:01:38.254Z,7.00
2022-12-19T23:04:06.707Z,7.00
2022-12-19T23:06:35.297Z,7.00
2022-12-19T23:09:02.815Z,7.00
2022-12-19T23:11:34.244Z,7.10
2022-12-19T23:14:02.733Z,7.00
2022-12-19T23:21:25.321Z,7.00
2022-12-19T23:23:54.110Z,7.00
2022-12-19T23:26:27.406Z,7.10
2022-12-19T23:29:10.941Z,7.10
2022-12-19T23:31:40.699Z,7.10
2022-12-19T23:56:32.442Z,7.10
